Devers, Texas
Current Conditions -  °F | °C
As of 4:15 AM on Monday 26 Jan 2015 (Local Time) from KBMT Reporting Station
Clear Clear  
Wind Chill: 41°   Ceiling: Unl
Heat Index: 45°   Visibility: 10mi
Dew Point: 32°   Wind: 8mph
Humidity: 60%   Direction: 340°NNW
Pressure: 30.15"   Gusts: NA
Location:  30.03°N, 94.59°W
Report Text: KBMT 261015Z AUTO 34007KT 10SM CLR 07/00 A3015 RMK AO2 T00740000
Loading
Personal Weather Stations






























Interactive Weather Map New forecast layout! Learn more

10-Day Weather Forecast

Advertisements
Track Severe Weather on mobile